Sault Ste Marie Airport
CYAM : now visible

Aeroporto :











RITROVATECI SU...

 
LOGIN :

Iscrizione | Disclaimer

   EN    FR    IT 

 









Sommario :    VFR   VFR Marginale   IFR   IFR Intensivo   IFR Molto Intensivo
Visibilità : 
Base nubi : 
>= 8 km
>= 3000ft
5 / 8 km
1000 / 3000 ft
1500m / 5 km
500 / 1000 ft
800 / 1500m
200 / 500 ft
< 800m
< 200 ft
Simboli :   Temporali  Nebbia  Neve Forte  Precipitazioni Forti  Vento > 20 kt






- Altitudine del aeroporto : 630 ft
- Codice IATA : YAM


CYAM - Sault Ste Marie

ULTIMO METAR :
  • 040100Z 13004KT 25SM FEW036 FEW260 07/M02 A3005 RMK CU1CI1 SLP183

METARs OBSOLETI :
  • 040000Z 13003KT 25SM FEW260 10/M02 A3004 RMK CI1 CI TR SLP181
  • 032300Z 09004KT 050V130 25SM FEW260 12/M01 A3005 RMK CI1 CI TR SLP183

TAF TAF CYAM
Valido dal 03 a 20 ore il 04 a 08 ore UTC


031939Z 0320/0408 VRB03KT P6SM SKC
PROB30 0403/0408 1SM BR RMK NXT FCST BY 040200Z



MetMap, La meteo Aeronautica in un colpo d'occhio ! - Copyright ORBIFLY Dicembre 2007 - Disclaimer

ORBIFLY MET'MAP TEAM :

Programmazione e sviluppo : Alexandra Zaïnal
Concezione : Baudouin d'Aumeries
Aiuto per la programmazione : Marc-Olivier Méhu
Supporto tecnico e logistico : Manuel Goepfert
Aiuto per la traduzione : Arnaldo La Scala

Contatto : metmap@orbifly.com




FONTI E CREDITI :

   NOAA       Earth
Advisory